Time;durP1;ratioP1;P1;durP2;ratioP2;P2;SDS_P1;SDS_P2;PMS_P1;PMS_P2;Temp;Humidity;BMP_temperature;BMP_pressure;BME280_temperature;BME280_humidity;BME280_pressure;Samples;Min_cycle;Max_cycle;Signal;HPM_P1;HPM_P2
2021/05/07 00:01:48;;;;;;;0.10;0.10;;;;;;;;;;5033217;28;20352;-69
2021/05/07 00:04:14;;;;;;;0.20;0.20;;;;;;;;;;5027120;28;20659;-69
2021/05/07 00:06:39;;;;;;;0.20;0.20;;;;;;;;;;5035466;28;20021;-69
2021/05/07 00:09:06;;;;;;;0.20;0.20;;;;;;;;;;5029548;28;20012;-68
2021/05/07 00:11:33;;;;;;;0.20;0.20;;;;;;;;;;5038040;28;20279;-69
2021/05/07 00:13:58;;;;;;;0.20;0.20;;;;;;;;;;5042993;28;20012;-69
2021/05/07 00:16:23;;;;;;;0.20;0.20;;;;;;;;;;5022491;28;20111;-69
2021/05/07 00:18:48;;;;;;;0.20;0.20;;;;;;;;;;5029798;28;20118;-69
2021/05/07 00:21:13;;;;;;;0.20;0.20;;;;;;;;;;5050745;28;20106;-69
2021/05/07 00:23:39;;;;;;;0.20;0.20;;;;;;;;;;5030363;28;20295;-69
2021/05/07 00:26:04;;;;;;;0.23;0.23;;;;;;;;;;5036936;28;20280;-69
2021/05/07 00:28:29;;;;;;;0.10;0.10;;;;;;;;;;5023874;28;20361;-69
2021/05/07 00:30:54;;;;;;;0.20;0.20;;;;;;;;;;5030710;28;20029;-69
2021/05/07 00:33:19;;;;;;;0.20;0.20;;;;;;;;;;5041500;28;20017;-69
2021/05/07 00:35:45;;;;;;;0.20;0.20;;;;;;;;;;5044551;28;20094;-69
2021/05/07 00:38:10;;;;;;;0.20;0.20;;;;;;;;;;5039053;28;20017;-69
2021/05/07 00:40:35;;;;;;;0.20;0.20;;;;;;;;;;5028377;28;20079;-69
2021/05/07 00:43:00;;;;;;;0.20;0.20;;;;;;;;;;5024899;28;20178;-69
2021/05/07 00:45:26;;;;;;;0.20;0.20;;;;;;;;;;5041268;28;20694;-69
2021/05/07 00:47:54;;;;;;;0.20;0.20;;;;;;;;;;5037854;28;20087;-68
2021/05/07 00:50:19;;;;;;;0.20;0.20;;;;;;;;;;5031317;28;20021;-68
2021/05/07 00:52:44;;;;;;;0.20;0.20;;;;;;;;;;5032079;28;20018;-68
2021/05/07 00:55:10;;;;;;;0.20;0.20;;;;;;;;;;5035275;28;20013;-68
2021/05/07 00:57:35;;;;;;;0.20;0.20;;;;;;;;;;5033919;28;20306;-68
2021/05/07 01:00:00;;;;;;;0.20;0.20;;;;;;;;;;5018438;28;20031;-68
2021/05/07 01:02:26;;;;;;;0.20;0.20;;;;;;;;;;5017969;28;20025;-68
2021/05/07 01:04:51;;;;;;;0.20;0.20;;;;;;;;;;5019373;28;20670;-68
2021/05/07 01:07:16;;;;;;;0.20;0.20;;;;;;;;;;5012409;28;20032;-68
2021/05/07 01:09:42;;;;;;;0.20;0.20;;;;;;;;;;5031435;28;20039;-68
2021/05/07 01:12:07;;;;;;;0.20;0.20;;;;;;;;;;5047857;28;20104;-68
2021/05/07 01:14:32;;;;;;;0.20;0.20;;;;;;;;;;5019329;28;20017;-68
2021/05/07 01:16:58;;;;;;;0.20;0.20;;;;;;;;;;5015493;28;20099;-68
2021/05/07 01:19:23;;;;;;;0.20;0.20;;;;;;;;;;5023925;28;20279;-68
2021/05/07 01:21:48;;;;;;;0.20;0.20;;;;;;;;;;5038355;28;20364;-68
2021/05/07 01:24:13;;;;;;;0.20;0.20;;;;;;;;;;5029154;28;20501;-68
2021/05/07 01:26:40;;;;;;;0.20;0.20;;;;;;;;;;5040830;28;20320;-69
2021/05/07 01:29:09;;;;;;;0.20;0.20;;;;;;;;;;5038021;28;20340;-68
2021/05/07 01:31:34;;;;;;;0.20;0.20;;;;;;;;;;5031553;28;20040;-68
2021/05/07 01:33:59;;;;;;;0.20;0.20;;;;;;;;;;5043353;28;20021;-68
2021/05/07 01:36:24;;;;;;;0.20;0.20;;;;;;;;;;5038483;28;20636;-68
2021/05/07 01:38:49;;;;;;;0.20;0.20;;;;;;;;;;5041521;28;20270;-68
2021/05/07 01:41:14;;;;;;;0.20;0.20;;;;;;;;;;5028604;28;20771;-69
2021/05/07 01:43:40;;;;;;;0.20;0.20;;;;;;;;;;5033865;28;20312;-68
2021/05/07 01:46:05;;;;;;;0.20;0.20;;;;;;;;;;5017956;28;20798;-68
2021/05/07 01:48:30;;;;;;;0.20;0.20;;;;;;;;;;5042026;28;20024;-68
2021/05/07 01:50:55;;;;;;;0.20;0.20;;;;;;;;;;5017639;28;20287;-68
2021/05/07 01:53:20;;;;;;;0.20;0.20;;;;;;;;;;5015458;28;20355;-68
2021/05/07 01:55:47;;;;;;;0.20;0.20;;;;;;;;;;5038293;28;20263;-68
2021/05/07 01:58:16;;;;;;;0.20;0.20;;;;;;;;;;5036147;28;20092;-68
2021/05/07 02:00:41;;;;;;;0.20;0.20;;;;;;;;;;5045309;28;20039;-68
2021/05/07 02:03:07;;;;;;;0.20;0.20;;;;;;;;;;5030166;28;20115;-68
2021/05/07 02:05:33;;;;;;;0.20;0.20;;;;;;;;;;5036086;28;20036;-68
2021/05/07 02:07:58;;;;;;;0.20;0.20;;;;;;;;;;5039467;28;20482;-68
2021/05/07 02:10:24;;;;;;;0.20;0.20;;;;;;;;;;5046024;28;20174;-69
2021/05/07 02:12:53;;;;;;;0.20;0.20;;;;;;;;;;5036400;28;20025;-68
2021/05/07 02:15:19;;;;;;;0.20;0.20;;;;;;;;;;5042571;28;20021;-68
2021/05/07 02:17:44;;;;;;;0.20;0.20;;;;;;;;;;5034957;28;20029;-68
2021/05/07 02:20:13;;;;;;;0.20;0.20;;;;;;;;;;5032513;28;20070;-68
2021/05/07 02:22:38;;;;;;;0.20;0.20;;;;;;;;;;5035063;28;20284;-68
2021/05/07 02:25:04;;;;;;;0.20;0.20;;;;;;;;;;5043783;28;20040;-68
2021/05/07 02:27:29;;;;;;;0.20;0.20;;;;;;;;;;5034181;28;20022;-69
2021/05/07 02:29:54;;;;;;;0.20;0.20;;;;;;;;;;5045015;28;20124;-68
2021/05/07 02:32:19;;;;;;;0.20;0.20;;;;;;;;;;5034746;28;20275;-68
2021/05/07 02:34:44;;;;;;;0.20;0.20;;;;;;;;;;5050915;28;20039;-68
2021/05/07 02:37:09;;;;;;;0.10;0.10;;;;;;;;;;5051465;28;20303;-68
2021/05/07 02:39:35;;;;;;;0.20;0.20;;;;;;;;;;5043938;28;20267;-68
2021/05/07 02:42:00;;;;;;;0.20;0.20;;;;;;;;;;5036925;28;20057;-68
2021/05/07 02:44:26;;;;;;;0.20;0.20;;;;;;;;;;5023894;28;20148;-68
2021/05/07 02:46:52;;;;;;;0.20;0.20;;;;;;;;;;5038230;28;20565;-68
2021/05/07 02:49:17;;;;;;;0.20;0.20;;;;;;;;;;5042514;28;20747;-69
2021/05/07 02:51:42;;;;;;;0.20;0.20;;;;;;;;;;5039558;28;20025;-69
2021/05/07 02:54:08;;;;;;;0.20;0.20;;;;;;;;;;5042224;28;20314;-68
2021/05/07 02:56:33;;;;;;;0.20;0.20;;;;;;;;;;5041657;28;20771;-68
2021/05/07 02:58:58;;;;;;;0.20;0.20;;;;;;;;;;5031280;28;20272;-68
2021/05/07 03:01:23;;;;;;;0.20;0.20;;;;;;;;;;5043943;28;20275;-69
2021/05/07 03:03:49;;;;;;;0.20;0.20;;;;;;;;;;5030391;28;20505;-68
2021/05/07 03:06:14;;;;;;;0.20;0.20;;;;;;;;;;5042471;28;20377;-69
2021/05/07 03:08:39;;;;;;;0.20;0.20;;;;;;;;;;5034241;28;20104;-69
2021/05/07 03:11:04;;;;;;;0.20;0.20;;;;;;;;;;5047136;28;20056;-68
2021/05/07 03:13:30;;;;;;;0.20;0.20;;;;;;;;;;5031055;28;20029;-68
2021/05/07 03:15:55;;;;;;;0.20;0.20;;;;;;;;;;5049018;28;20479;-68
2021/05/07 03:18:20;;;;;;;0.20;0.20;;;;;;;;;;5024894;28;20269;-68
2021/05/07 03:20:46;;;;;;;0.20;0.20;;;;;;;;;;5032761;28;20287;-68
2021/05/07 03:23:11;;;;;;;0.20;0.20;;;;;;;;;;5033349;28;20025;-68
2021/05/07 03:25:36;;;;;;;0.20;0.20;;;;;;;;;;5042740;28;20048;-68
2021/05/07 03:28:02;;;;;;;0.20;0.20;;;;;;;;;;5014130;28;20026;-68
2021/05/07 03:30:27;;;;;;;0.20;0.20;;;;;;;;;;5034266;28;21413;-68
2021/05/07 03:32:52;;;;;;;0.20;0.20;;;;;;;;;;5017641;28;20009;-68
2021/05/07 03:35:17;;;;;;;0.20;0.20;;;;;;;;;;5034529;28;20045;-68
2021/05/07 03:37:42;;;;;;;0.20;0.20;;;;;;;;;;5038137;28;20264;-68
2021/05/07 03:40:08;;;;;;;0.20;0.20;;;;;;;;;;5021969;28;20055;-67
2021/05/07 03:42:33;;;;;;;0.20;0.20;;;;;;;;;;5040543;28;20442;-68
2021/05/07 03:44:58;;;;;;;0.20;0.20;;;;;;;;;;5047696;28;20090;-68
2021/05/07 03:47:23;;;;;;;0.20;0.20;;;;;;;;;;5025534;28;20271;-67
2021/05/07 03:49:49;;;;;;;0.20;0.20;;;;;;;;;;5041723;28;20374;-68
2021/05/07 03:52:14;;;;;;;0.20;0.20;;;;;;;;;;5030644;28;20256;-68
2021/05/07 03:54:40;;;;;;;0.20;0.20;;;;;;;;;;5023717;28;20107;-68
2021/05/07 03:57:05;;;;;;;0.20;0.20;;;;;;;;;;5048648;28;20329;-68
2021/05/07 03:59:30;;;;;;;0.20;0.20;;;;;;;;;;5033715;28;20032;-68
2021/05/07 04:01:55;;;;;;;0.20;0.20;;;;;;;;;;5043804;28;20021;-68
2021/05/07 04:04:20;;;;;;;0.20;0.20;;;;;;;;;;5045982;28;20295;-68
2021/05/07 04:06:46;;;;;;;0.20;0.20;;;;;;;;;;5041654;28;20032;-68
2021/05/07 04:09:15;;;;;;;0.20;0.20;;;;;;;;;;5046527;28;20025;-68
2021/05/07 04:14:14;;;;;;;0.20;0.20;;;;;;;;;;5049924;28;20481;-68
2021/05/07 04:16:39;;;;;;;0.20;0.20;;;;;;;;;;5025985;28;20033;-68
2021/05/07 04:19:05;;;;;;;0.30;0.30;;;;;;;;;;5041071;28;20017;-68
2021/05/07 04:21:30;;;;;;;0.30;0.30;;;;;;;;;;5049574;28;20286;-68
2021/05/07 04:23:55;;;;;;;0.23;0.23;;;;;;;;;;5032876;28;20604;-68
2021/05/07 04:26:20;;;;;;;0.20;0.20;;;;;;;;;;5037406;28;20268;-68
2021/05/07 04:28:46;;;;;;;0.30;0.30;;;;;;;;;;5035036;28;20032;-68
2021/05/07 04:31:11;;;;;;;0.20;0.20;;;;;;;;;;5043790;28;20375;-68
2021/05/07 04:33:36;;;;;;;0.20;0.20;;;;;;;;;;5050441;28;20076;-68
2021/05/07 04:36:01;;;;;;;0.20;0.20;;;;;;;;;;5043974;28;20082;-68
2021/05/07 04:38:26;;;;;;;0.20;0.20;;;;;;;;;;5033160;28;20025;-68
2021/05/07 04:40:52;;;;;;;0.20;0.20;;;;;;;;;;5026299;28;20048;-68
2021/05/07 04:43:17;;;;;;;0.20;0.20;;;;;;;;;;5047390;28;20272;-68
2021/05/07 04:45:42;;;;;;;0.20;0.20;;;;;;;;;;5023489;28;20744;-69
2021/05/07 04:48:11;;;;;;;0.20;0.20;;;;;;;;;;5049464;28;20268;-69
2021/05/07 04:50:36;;;;;;;0.20;0.20;;;;;;;;;;5036468;28;20033;-69
2021/05/07 04:53:01;;;;;;;0.20;0.20;;;;;;;;;;5040575;28;20032;-68
2021/05/07 04:55:27;;;;;;;0.20;0.20;;;;;;;;;;5019252;28;20025;-68
2021/05/07 04:57:52;;;;;;;0.30;0.30;;;;;;;;;;5031761;28;20663;-69
2021/05/07 05:00:17;;;;;;;0.20;0.20;;;;;;;;;;5035359;28;20112;-68
2021/05/07 05:02:43;;;;;;;0.20;0.20;;;;;;;;;;5024897;28;20033;-68
2021/05/07 05:05:11;;;;;;;0.20;0.20;;;;;;;;;;5038409;28;20071;-68
2021/05/07 05:07:36;;;;;;;0.20;0.20;;;;;;;;;;5044380;28;20278;-69
2021/05/07 05:10:02;;;;;;;0.20;0.20;;;;;;;;;;5020237;28;20530;-69
2021/05/07 05:12:27;;;;;;;0.20;0.20;;;;;;;;;;5026909;28;20274;-68
2021/05/07 05:14:53;;;;;;;0.20;0.20;;;;;;;;;;5044555;28;20448;-69
2021/05/07 05:17:18;;;;;;;0.20;0.20;;;;;;;;;;5044814;28;20300;-68
2021/05/07 05:19:46;;;;;;;0.20;0.20;;;;;;;;;;5044822;28;20069;-68
2021/05/07 05:22:11;;;;;;;0.28;0.28;;;;;;;;;;5029617;28;20371;-68
2021/05/07 05:24:36;;;;;;;0.20;0.20;;;;;;;;;;5047262;28;20111;-68
2021/05/07 05:27:02;;;;;;;0.20;0.20;;;;;;;;;;5049514;28;21753;-68
2021/05/07 05:29:28;;;;;;;0.30;0.30;;;;;;;;;;5051632;28;20029;-68
2021/05/07 05:31:53;;;;;;;0.20;0.20;;;;;;;;;;5050178;28;20442;-68
2021/05/07 05:34:18;;;;;;;0.20;0.20;;;;;;;;;;5046102;28;20390;-69
2021/05/07 05:36:46;;;;;;;0.20;0.20;;;;;;;;;;5046344;28;20060;-69
2021/05/07 05:39:12;;;;;;;0.20;0.20;;;;;;;;;;5051249;28;20385;-68
2021/05/07 05:41:48;;;;;;;0.20;0.20;;;;;;;;;;5037096;28;20048;-68
2021/05/07 05:44:13;;;;;;;0.30;0.30;;;;;;;;;;5041270;28;20131;-68
2021/05/07 05:46:39;;;;;;;0.20;0.20;;;;;;;;;;5060862;28;20100;-68
2021/05/07 05:49:05;;;;;;;0.20;0.20;;;;;;;;;;5052837;28;20053;-68
2021/05/07 05:51:30;;;;;;;0.30;0.30;;;;;;;;;;5052591;28;20984;-68
2021/05/07 05:53:55;;;;;;;0.20;0.20;;;;;;;;;;5058765;28;20136;-68
2021/05/07 05:56:20;;;;;;;0.20;0.20;;;;;;;;;;5051010;28;20266;-68
2021/05/07 05:58:45;;;;;;;0.20;0.20;;;;;;;;;;5037829;28;21046;-69
2021/05/07 06:01:10;;;;;;;0.20;0.20;;;;;;;;;;5035228;28;20271;-69
2021/05/07 06:03:36;;;;;;;0.20;0.20;;;;;;;;;;5055576;28;21028;-69
2021/05/07 06:06:01;;;;;;;0.30;0.30;;;;;;;;;;5037645;28;20508;-69
2021/05/07 06:08:26;;;;;;;0.20;0.20;;;;;;;;;;5048255;28;20358;-68
2021/05/07 06:10:51;;;;;;;0.30;0.30;;;;;;;;;;5020701;28;20764;-69
2021/05/07 06:13:16;;;;;;;0.28;0.28;;;;;;;;;;5035827;28;20033;-69
2021/05/07 06:15:42;;;;;;;0.20;0.20;;;;;;;;;;5048388;28;20036;-69
2021/05/07 06:18:07;;;;;;;0.20;0.20;;;;;;;;;;5044323;28;20282;-69
2021/05/07 06:20:32;;;;;;;0.20;0.20;;;;;;;;;;5026453;28;20272;-69
2021/05/07 06:22:57;;;;;;;0.20;0.20;;;;;;;;;;5046725;28;20025;-69
2021/05/07 06:25:25;;;;;;;0.20;0.20;;;;;;;;;;5043800;28;20025;-69
2021/05/07 06:27:50;;;;;;;0.20;0.20;;;;;;;;;;5027355;28;20031;-69
2021/05/07 06:30:15;;;;;;;0.20;0.20;;;;;;;;;;5047003;28;20029;-69
2021/05/07 06:32:41;;;;;;;0.20;0.20;;;;;;;;;;5048519;28;20021;-68
2021/05/07 06:35:06;;;;;;;0.20;0.20;;;;;;;;;;5020172;28;20021;-70
2021/05/07 06:37:31;;;;;;;0.20;0.20;;;;;;;;;;5050545;28;20025;-72
2021/05/07 06:39:57;;;;;;;0.20;0.20;;;;;;;;;;5046235;28;20029;-73
2021/05/07 06:42:22;;;;;;;0.20;0.20;;;;;;;;;;5053614;28;20049;-72
2021/05/07 06:44:47;;;;;;;0.13;0.13;;;;;;;;;;5054786;28;20025;-72
2021/05/07 06:47:12;;;;;;;0.10;0.10;;;;;;;;;;5034861;28;20032;-72
2021/05/07 06:49:38;;;;;;;0.20;0.20;;;;;;;;;;5046757;28;20053;-72
2021/05/07 06:52:03;;;;;;;0.20;0.20;;;;;;;;;;5042317;28;20037;-71
2021/05/07 06:54:29;;;;;;;0.20;0.20;;;;;;;;;;5041512;28;20759;-71
2021/05/07 06:56:55;;;;;;;0.20;0.20;;;;;;;;;;5051581;28;20021;-72
2021/05/07 06:59:21;;;;;;;0.10;0.10;;;;;;;;;;5028372;28;20272;-71
2021/05/07 07:01:46;;;;;;;0.20;0.20;;;;;;;;;;5026581;28;20033;-71
2021/05/07 07:04:12;;;;;;;0.13;0.13;;;;;;;;;;5039011;28;20025;-72
2021/05/07 07:06:37;;;;;;;0.20;0.20;;;;;;;;;;5025485;28;20021;-72
2021/05/07 07:09:02;;;;;;;0.20;0.20;;;;;;;;;;5046174;28;20486;-72
2021/05/07 07:11:27;;;;;;;0.20;0.20;;;;;;;;;;5047165;28;20276;-71
2021/05/07 07:13:52;;;;;;;0.20;0.20;;;;;;;;;;5025625;28;20021;-71
2021/05/07 07:16:18;;;;;;;0.10;0.10;;;;;;;;;;5041170;28;20321;-71
2021/05/07 07:18:43;;;;;;;0.15;0.15;;;;;;;;;;5027418;28;20315;-70
2021/05/07 07:21:08;;;;;;;0.10;0.10;;;;;;;;;;5043319;28;20053;-72
2021/05/07 07:23:34;;;;;;;0.20;0.20;;;;;;;;;;5019256;28;20040;-70
2021/05/07 07:25:59;;;;;;;0.10;0.10;;;;;;;;;;5024788;28;20102;-74
2021/05/07 07:28:24;;;;;;;0.20;0.20;;;;;;;;;;5026647;28;20031;-72
2021/05/07 07:30:50;;;;;;;0.20;0.20;;;;;;;;;;5024273;28;20287;-70
2021/05/07 07:33:15;;;;;;;0.20;0.20;;;;;;;;;;5030491;28;20274;-70
2021/05/07 07:35:40;;;;;;;0.20;0.20;;;;;;;;;;5041321;28;20029;-68
2021/05/07 07:38:05;;;;;;;0.20;0.20;;;;;;;;;;5042672;28;20021;-71
2021/05/07 07:40:31;;;;;;;0.20;0.20;;;;;;;;;;5024129;28;20025;-71
2021/05/07 07:42:56;;;;;;;0.20;0.20;;;;;;;;;;5022674;28;20049;-70
2021/05/07 07:45:21;;;;;;;0.20;0.20;;;;;;;;;;5045080;28;20021;-70
2021/05/07 07:47:46;;;;;;;0.20;0.20;;;;;;;;;;5026339;28;20638;-70
2021/05/07 07:50:12;;;;;;;0.20;0.20;;;;;;;;;;5044835;28;20029;-71
2021/05/07 07:52:38;;;;;;;0.20;0.20;;;;;;;;;;5040372;28;20032;-71
2021/05/07 07:55:04;;;;;;;0.10;0.10;;;;;;;;;;5046909;28;20540;-71
2021/05/07 07:57:29;;;;;;;0.20;0.20;;;;;;;;;;5033697;28;20029;-72
2021/05/07 07:59:55;;;;;;;0.20;0.20;;;;;;;;;;5036326;28;20047;-72
2021/05/07 08:02:20;;;;;;;0.20;0.20;;;;;;;;;;5028480;28;20389;-71
2021/05/07 08:04:45;;;;;;;0.10;0.10;;;;;;;;;;5043747;28;20108;-71
2021/05/07 08:07:12;;;;;;;0.10;0.10;;;;;;;;;;5038839;28;20144;-69
2021/05/07 08:09:37;;;;;;;0.20;0.20;;;;;;;;;;5021007;28;20025;-70
2021/05/07 08:12:02;;;;;;;0.17;0.17;;;;;;;;;;5030902;28;20096;-69
2021/05/07 08:14:28;;;;;;;0.13;0.13;;;;;;;;;;5040680;28;20381;-69
2021/05/07 08:16:53;;;;;;;0.10;0.10;;;;;;;;;;5041321;28;20466;-68
2021/05/07 08:19:18;;;;;;;0.10;0.10;;;;;;;;;;5045005;28;20274;-68
2021/05/07 08:21:43;;;;;;;0.10;0.10;;;;;;;;;;5033367;28;20029;-71
2021/05/07 08:24:09;;;;;;;0.20;0.20;;;;;;;;;;5039681;28;20025;-69
2021/05/07 08:26:34;;;;;;;0.10;0.10;;;;;;;;;;5019563;28;20825;-72
2021/05/07 08:29:00;;;;;;;0.20;0.20;;;;;;;;;;5038926;28;20108;-72
2021/05/07 08:31:25;;;;;;;0.20;0.20;;;;;;;;;;5039890;28;20036;-72
2021/05/07 08:33:50;;;;;;;0.10;0.10;;;;;;;;;;5042138;28;20111;-73
2021/05/07 08:36:16;;;;;;;0.20;0.20;;;;;;;;;;5045017;28;20583;-73
2021/05/07 08:38:41;;;;;;;0.17;0.17;;;;;;;;;;5044881;28;20036;-72
2021/05/07 08:41:06;;;;;;;0.10;0.10;;;;;;;;;;5023604;28;20079;-72
2021/05/07 08:43:31;;;;;;;0.20;0.20;;;;;;;;;;5037637;28;20946;-71
2021/05/07 08:45:57;;;;;;;0.15;0.15;;;;;;;;;;5038000;28;20031;-72
2021/05/07 08:48:22;;;;;;;0.10;0.10;;;;;;;;;;5027692;28;20135;-71
2021/05/07 08:50:48;;;;;;;0.10;0.10;;;;;;;;;;5039824;28;20439;-71
2021/05/07 08:53:14;;;;;;;0.10;0.10;;;;;;;;;;5041600;28;20017;-72
2021/05/07 08:55:39;;;;;;;0.10;0.10;;;;;;;;;;5025984;28;20386;-70
2021/05/07 08:58:04;;;;;;;0.10;0.10;;;;;;;;;;5040265;28;20021;-70
2021/05/07 09:00:30;;;;;;;0.10;0.10;;;;;;;;;;5039537;28;20032;-70
2021/05/07 09:03:03;;;;;;;0.10;0.10;;;;;;;;;;5040890;28;20030;-71
2021/05/07 09:05:31;;;;;;;0.10;0.10;;;;;;;;;;5046274;28;20026;-69
2021/05/07 09:07:57;;;;;;;0.10;0.10;;;;;;;;;;5048606;28;20435;-69
2021/05/07 09:10:30;;;;;;;0.10;0.10;;;;;;;;;;5026084;28;20028;-69
2021/05/07 09:12:55;;;;;;;0.10;0.10;;;;;;;;;;5036068;28;20260;-72
2021/05/07 09:15:20;;;;;;;0.10;0.10;;;;;;;;;;5021745;28;20025;-72
2021/05/07 09:17:45;;;;;;;0.10;0.10;;;;;;;;;;5036328;28;20021;-72
2021/05/07 09:20:11;;;;;;;0.20;0.20;;;;;;;;;;5023176;28;20032;-72
2021/05/07 09:22:36;;;;;;;0.10;0.10;;;;;;;;;;5039654;28;20263;-72
2021/05/07 09:25:03;;;;;;;0.10;0.10;;;;;;;;;;5039817;28;20036;-72
2021/05/07 09:27:28;;;;;;;0.10;0.10;;;;;;;;;;5018218;28;20032;-72
2021/05/07 09:29:53;;;;;;;0.13;0.13;;;;;;;;;;5026129;28;20037;-73
2021/05/07 09:32:26;;;;;;;0.00;0.00;;;;;;;;;;5044634;28;20363;-72
2021/05/07 09:34:51;;;;;;;0.10;0.10;;;;;;;;;;5045152;28;20024;-72
2021/05/07 09:37:18;;;;;;;0.10;0.10;;;;;;;;;;5048079;28;20032;-72
2021/05/07 09:39:44;;;;;;;0.10;0.10;;;;;;;;;;5046537;28;20025;-72
2021/05/07 09:42:09;;;;;;;0.00;0.00;;;;;;;;;;5050969;28;20040;-72
2021/05/07 09:44:35;;;;;;;0.10;0.10;;;;;;;;;;5033776;28;20013;-72
2021/05/07 09:47:10;;;;;;;0.10;0.10;;;;;;;;;;5030013;28;20029;-72
2021/05/07 09:49:35;;;;;;;0.10;0.10;;;;;;;;;;5026604;28;20016;-72
2021/05/07 09:52:01;;;;;;;0.10;0.10;;;;;;;;;;5040502;28;20032;-72
2021/05/07 09:54:26;;;;;;;0.10;0.10;;;;;;;;;;5042929;28;20608;-71
2021/05/07 09:56:53;;;;;;;0.10;0.10;;;;;;;;;;5046092;28;20017;-72
2021/05/07 09:59:19;;;;;;;0.10;0.10;;;;;;;;;;5029411;28;20029;-72
2021/05/07 10:01:45;;;;;;;0.20;0.20;;;;;;;;;;5038075;28;20041;-72
2021/05/07 10:04:10;;;;;;;0.10;0.10;;;;;;;;;;5025340;28;20134;-72
2021/05/07 10:06:36;;;;;;;0.10;0.10;;;;;;;;;;5040348;28;20045;-72
2021/05/07 10:09:01;;;;;;;0.20;0.20;;;;;;;;;;5037817;28;20030;-71
2021/05/07 10:11:32;;;;;;;0.20;0.20;;;;;;;;;;5040125;28;20029;-71
2021/05/07 10:13:57;;;;;;;0.20;0.20;;;;;;;;;;5024474;28;21015;-72
2021/05/07 10:16:27;;;;;;;0.20;0.20;;;;;;;;;;5043237;28;20028;-72
2021/05/07 10:18:58;;;;;;;0.20;0.20;;;;;;;;;;5043096;28;20106;-71
2021/05/07 10:21:31;;;;;;;0.20;0.20;;;;;;;;;;5023319;28;20514;-71
2021/05/07 10:23:58;;;;;;;0.20;0.20;;;;;;;;;;5038608;28;20028;-72
2021/05/07 10:26:36;;;;;;;0.20;0.20;;;;;;;;;;5040995;28;20024;-72
2021/05/07 10:29:02;;;;;;;0.30;0.30;;;;;;;;;;5039401;28;20799;-72
2021/05/07 10:31:27;;;;;;;0.20;0.20;;;;;;;;;;5034413;28;20029;-71
2021/05/07 10:33:59;;;;;;;0.30;0.30;;;;;;;;;;5024987;28;20028;-72
2021/05/07 10:37:01;;;;;;;0.20;0.20;;;;;;;;;;5045181;28;20067;-71
2021/05/07 10:39:27;;;;;;;0.20;0.20;;;;;;;;;;4962620;28;20471;-71
2021/05/07 10:41:52;;;;;;;0.20;0.20;;;;;;;;;;5008033;28;20036;-71
2021/05/07 10:44:18;;;;;;;0.20;0.20;;;;;;;;;;5042507;28;20482;-72
2021/05/07 10:46:43;;;;;;;0.20;0.20;;;;;;;;;;5040476;28;20029;-72
2021/05/07 10:49:09;;;;;;;0.20;0.20;;;;;;;;;;5039368;28;20055;-71
2021/05/07 10:51:34;;;;;;;0.17;0.17;;;;;;;;;;5053854;28;20021;-71
2021/05/07 10:54:06;;;;;;;0.10;0.10;;;;;;;;;;5062897;28;20070;-71
2021/05/07 10:56:36;;;;;;;0.10;0.10;;;;;;;;;;5062626;28;20021;-71
2021/05/07 10:59:10;;;;;;;0.10;0.10;;;;;;;;;;5027603;28;20014;-71
2021/05/07 11:01:37;;;;;;;0.10;0.10;;;;;;;;;;5043178;28;20077;-71
2021/05/07 11:04:03;;;;;;;0.00;0.00;;;;;;;;;;5043199;28;20095;-71
2021/05/07 11:06:32;;;;;;;0.00;0.00;;;;;;;;;;5038062;28;20024;-71
2021/05/07 11:08:57;;;;;;;0.00;0.00;;;;;;;;;;5023105;28;20025;-72
2021/05/07 11:11:22;;;;;;;0.00;0.00;;;;;;;;;;5045965;28;20029;-71
2021/05/07 11:13:48;;;;;;;0.00;0.00;;;;;;;;;;5043077;28;20029;-71
2021/05/07 11:16:13;;;;;;;0.00;0.00;;;;;;;;;;5044203;28;20017;-72
2021/05/07 11:18:38;;;;;;;0.00;0.00;;;;;;;;;;5035947;28;20766;-71
2021/05/07 11:21:11;;;;;;;0.00;0.00;;;;;;;;;;5046833;28;20033;-71
2021/05/07 11:23:36;;;;;;;0.00;0.00;;;;;;;;;;5040952;28;20267;-72
2021/05/07 11:26:05;;;;;;;0.00;0.00;;;;;;;;;;5036823;28;20079;-71
2021/05/07 11:28:32;;;;;;;0.00;0.00;;;;;;;;;;5039983;28;20385;-71
2021/05/07 11:30:58;;;;;;;0.00;0.00;;;;;;;;;;5036099;28;20025;-71
2021/05/07 11:33:24;;;;;;;0.00;0.00;;;;;;;;;;5038006;28;20359;-72
2021/05/07 11:36:08;;;;;;;0.00;0.00;;;;;;;;;;5025607;28;20021;-72
2021/05/07 11:38:34;;;;;;;0.00;0.00;;;;;;;;;;5029310;28;20531;-71
2021/05/07 11:40:59;;;;;;;0.00;0.00;;;;;;;;;;5041633;28;20021;-72
2021/05/07 11:43:25;;;;;;;0.00;0.00;;;;;;;;;;5046666;28;20047;-72
2021/05/07 11:46:01;;;;;;;0.00;0.00;;;;;;;;;;5046175;28;20489;-72
2021/05/07 11:48:26;;;;;;;0.00;0.00;;;;;;;;;;5042166;28;20554;-72
2021/05/07 11:50:51;;;;;;;0.00;0.00;;;;;;;;;;5046564;28;20223;-72
2021/05/07 11:53:17;;;;;;;0.00;0.00;;;;;;;;;;5025702;28;20040;-72
2021/05/07 11:55:42;;;;;;;0.00;0.00;;;;;;;;;;5023995;28;20759;-72
2021/05/07 11:58:08;;;;;;;0.00;0.00;;;;;;;;;;5027395;28;20407;-73
2021/05/07 12:00:34;;;;;;;0.00;0.00;;;;;;;;;;5040880;28;20028;-72
2021/05/07 12:02:59;;;;;;;0.00;0.00;;;;;;;;;;5042421;28;20082;-71
2021/05/07 12:05:28;;;;;;;0.00;0.00;;;;;;;;;;5046161;28;20108;-73
2021/05/07 12:07:53;;;;;;;0.00;0.00;;;;;;;;;;5044298;28;20267;-72
2021/05/07 12:10:22;;;;;;;0.00;0.00;;;;;;;;;;5022757;28;20067;-72
2021/05/07 12:12:47;;;;;;;0.00;0.00;;;;;;;;;;5040441;28;20267;-72
2021/05/07 12:15:13;;;;;;;0.00;0.00;;;;;;;;;;5044166;28;20067;-72
2021/05/07 12:17:42;;;;;;;0.00;0.00;;;;;;;;;;5042180;28;20694;-72
2021/05/07 12:20:07;;;;;;;0.00;0.00;;;;;;;;;;5027567;28;20444;-72
2021/05/07 12:22:33;;;;;;;0.00;0.00;;;;;;;;;;5046107;28;20120;-72
2021/05/07 12:25:08;;;;;;;0.00;0.00;;;;;;;;;;5027405;28;20462;-72
2021/05/07 12:27:33;;;;;;;0.00;0.00;;;;;;;;;;5043081;28;20104;-72
2021/05/07 12:29:59;;;;;;;0.00;0.00;;;;;;;;;;5043742;28;20517;-71
2021/05/07 12:32:24;;;;;;;0.00;0.00;;;;;;;;;;5041978;28;20056;-71
2021/05/07 12:34:59;;;;;;;0.00;0.00;;;;;;;;;;5028381;28;20267;-72
2021/05/07 12:37:24;;;;;;;0.00;0.00;;;;;;;;;;5043705;28;20025;-72
2021/05/07 12:39:50;;;;;;;0.00;0.00;;;;;;;;;;5044152;28;20697;-72
2021/05/07 12:42:15;;;;;;;0.00;0.00;;;;;;;;;;5043568;28;20390;-72
2021/05/07 12:44:40;;;;;;;0.00;0.00;;;;;;;;;;5041493;28;20016;-72
2021/05/07 12:47:05;;;;;;;0.00;0.00;;;;;;;;;;5037407;28;20806;-72
2021/05/07 12:49:30;;;;;;;0.00;0.00;;;;;;;;;;5048178;28;20279;-72
2021/05/07 12:51:59;;;;;;;0.00;0.00;;;;;;;;;;5041037;28;20327;-72
2021/05/07 12:54:24;;;;;;;0.00;0.00;;;;;;;;;;5042308;28;20275;-72
2021/05/07 12:56:51;;;;;;;0.00;0.00;;;;;;;;;;5044513;28;20032;-71
2021/05/07 12:59:17;;;;;;;0.00;0.00;;;;;;;;;;5020939;28;20346;-71
2021/05/07 13:01:47;;;;;;;0.00;0.00;;;;;;;;;;5045411;28;20039;-72
2021/05/07 13:04:12;;;;;;;0.00;0.00;;;;;;;;;;5039118;28;20278;-72
2021/05/07 13:06:37;;;;;;;0.00;0.00;;;;;;;;;;5042849;28;20026;-72
2021/05/07 13:09:02;;;;;;;0.00;0.00;;;;;;;;;;5039152;28;20336;-72
2021/05/07 13:11:27;;;;;;;0.00;0.00;;;;;;;;;;5042934;28;20283;-72
2021/05/07 13:13:53;;;;;;;0.00;0.00;;;;;;;;;;5024426;28;20102;-72
2021/05/07 13:16:18;;;;;;;0.00;0.00;;;;;;;;;;5025775;28;20589;-72
2021/05/07 13:18:43;;;;;;;0.00;0.00;;;;;;;;;;5037976;28;20150;-72
2021/05/07 13:21:08;;;;;;;0.00;0.00;;;;;;;;;;5040156;28;20098;-73
2021/05/07 13:23:34;;;;;;;0.00;0.00;;;;;;;;;;5035626;28;20031;-71
2021/05/07 13:26:00;;;;;;;0.00;0.00;;;;;;;;;;5041786;28;20029;-73
2021/05/07 13:28:25;;;;;;;0.00;0.00;;;;;;;;;;5042698;28;20036;-72
2021/05/07 13:30:51;;;;;;;0.00;0.00;;;;;;;;;;5040830;28;20025;-72
2021/05/07 13:33:19;;;;;;;0.00;0.00;;;;;;;;;;5036594;28;20021;-72
2021/05/07 13:35:44;;;;;;;0.00;0.00;;;;;;;;;;5022607;28;20064;-73
2021/05/07 13:38:10;;;;;;;0.00;0.00;;;;;;;;;;5023417;28;20470;-72
2021/05/07 13:40:35;;;;;;;0.00;0.00;;;;;;;;;;5043807;28;20271;-73
2021/05/07 13:43:02;;;;;;;0.00;0.00;;;;;;;;;;5039437;28;20045;-73
2021/05/07 13:45:27;;;;;;;0.00;0.00;;;;;;;;;;5042870;28;20350;-73
2021/05/07 13:47:52;;;;;;;0.00;0.00;;;;;;;;;;5022271;28;20534;-73
2021/05/07 13:50:19;;;;;;;0.00;0.00;;;;;;;;;;5023921;28;20280;-73
2021/05/07 13:52:44;;;;;;;0.00;0.00;;;;;;;;;;5026398;28;20028;-73
2021/05/07 13:55:10;;;;;;;0.00;0.00;;;;;;;;;;5042586;28;20373;-72
2021/05/07 13:57:35;;;;;;;0.00;0.00;;;;;;;;;;5043279;28;20044;-73
2021/05/07 14:00:00;;;;;;;0.00;0.00;;;;;;;;;;5042443;28;20749;-73
2021/05/07 14:02:26;;;;;;;0.00;0.00;;;;;;;;;;5041602;28;20025;-73
2021/05/07 14:04:52;;;;;;;0.00;0.00;;;;;;;;;;5043419;28;20727;-72
2021/05/07 14:07:18;;;;;;;0.00;0.00;;;;;;;;;;5045889;28;20029;-73
2021/05/07 14:09:43;;;;;;;0.00;0.00;;;;;;;;;;5046626;28;20496;-72
2021/05/07 14:12:09;;;;;;;0.00;0.00;;;;;;;;;;5027567;28;20021;-73
2021/05/07 14:14:34;;;;;;;0.00;0.00;;;;;;;;;;5044713;28;20025;-72
2021/05/07 14:16:59;;;;;;;0.00;0.00;;;;;;;;;;5027107;28;20399;-72
2021/05/07 14:19:24;;;;;;;0.00;0.00;;;;;;;;;;5045854;28;20267;-72
2021/05/07 14:21:52;;;;;;;0.00;0.00;;;;;;;;;;5043970;28;20267;-72
2021/05/07 14:24:17;;;;;;;0.00;0.00;;;;;;;;;;5050142;28;20748;-73
2021/05/07 14:26:42;;;;;;;0.00;0.00;;;;;;;;;;5043149;28;20028;-73
2021/05/07 14:29:07;;;;;;;0.00;0.00;;;;;;;;;;5029657;28;20294;-72
2021/05/07 14:31:33;;;;;;;0.00;0.00;;;;;;;;;;5041783;28;20108;-72
2021/05/07 14:33:58;;;;;;;0.00;0.00;;;;;;;;;;5039588;28;20025;-72
2021/05/07 14:36:23;;;;;;;0.00;0.00;;;;;;;;;;5030306;28;20162;-72
2021/05/07 14:38:48;;;;;;;0.00;0.00;;;;;;;;;;5044512;28;20075;-72